Time;durP1;ratioP1;P1;durP2;ratioP2;P2;SDS_P1;SDS_P2;PMS_P1;PMS_P2;Temp;Humidity;BMP_temperature;BMP_pressure;BME280_temperature;BME280_humidity;BME280_pressure;Samples;Min_cycle;Max_cycle;Signal;HPM_P1;HPM_P2
2023/04/16 00:01:05;;;;;;;;;;;;;;;14.89;51.57;102336.56;7255378;19;153057;-54
2023/04/16 00:03:32;;;;;;;;;;;;;;;14.92;51.56;102333.28;7253537;19;153463;-54
2023/04/16 00:05:59;;;;;;;;;;;;;;;14.89;51.82;102331.84;7255856;19;154807;-54
2023/04/16 00:08:26;;;;;;;;;;;;;;;14.89;51.77;102337.41;7259618;19;151905;-54
2023/04/16 00:10:55;;;;;;;;;;;;;;;14.91;51.59;102343.56;7252460;19;152455;-54
2023/04/16 00:13:22;;;;;;;;;;;;;;;14.91;51.53;102345.50;7253910;19;152817;-55
2023/04/16 00:15:49;;;;;;;;;;;;;;;14.89;51.59;102348.53;7252200;19;152728;-55
2023/04/16 00:18:16;;;;;;;;;;;;;;;14.91;51.70;102339.94;7254601;19;152534;-54
2023/04/16 00:20:42;;;;;;;;;;;;;;;14.89;51.53;102339.34;7259695;19;154010;-54
2023/04/16 00:23:09;;;;;;;;;;;;;;;14.89;51.82;102344.91;7255480;19;153521;-54
2023/04/16 00:25:36;;;;;;;;;;;;;;;14.86;51.76;102335.09;7254261;19;152906;-55
2023/04/16 00:28:04;;;;;;;;;;;;;;;14.92;51.54;102338.84;7258121;19;152988;-54
2023/04/16 00:30:31;;;;;;;;;;;;;;;14.91;51.82;102337.16;7254930;19;153490;-54
2023/04/16 00:32:58;;;;;;;;;;;;;;;14.87;51.83;102335.94;7251707;19;155977;-54
2023/04/16 00:35:25;;;;;;;;;;;;;;;14.88;51.56;102335.72;7250762;19;152588;-54
2023/04/16 00:37:52;;;;;;;;;;;;;;;14.91;51.54;102332.44;7259845;19;153237;-55
2023/04/16 00:40:19;;;;;;;;;;;;;;;14.93;51.56;102343.34;7257232;19;154267;-54
2023/04/16 00:42:46;;;;;;;;;;;;;;;14.92;51.72;102338.84;7266571;19;153008;-54
2023/04/16 00:45:13;;;;;;;;;;;;;;;14.91;51.51;102337.16;7261871;19;154230;-54
2023/04/16 00:47:40;;;;;;;;;;;;;;;14.95;51.51;102330.03;7256960;19;152006;-54
2023/04/16 00:50:07;;;;;;;;;;;;;;;14.93;51.29;102330.28;7263702;19;152828;-54
2023/04/16 00:52:34;;;;;;;;;;;;;;;14.91;51.21;102332.44;7260854;19;153018;-54
2023/04/16 00:55:01;;;;;;;;;;;;;;;14.92;51.38;102338.84;7262529;19;153242;-54
2023/04/16 00:57:28;;;;;;;;;;;;;;;14.91;51.65;102332.44;7260021;19;153494;-54
2023/04/16 00:59:55;;;;;;;;;;;;;;;14.90;51.68;102327.94;7257207;19;152475;-54
2023/04/16 01:02:22;;;;;;;;;;;;;;;14.90;51.34;102327.13;7269353;19;153066;-54
2023/04/16 01:04:49;;;;;;;;;;;;;;;14.89;51.32;102328.22;7258324;19;153508;-54
2023/04/16 01:07:16;;;;;;;;;;;;;;;14.90;51.64;102327.13;7260073;19;151948;-54
2023/04/16 01:09:43;;;;;;;;;;;;;;;14.91;51.56;102332.44;7260489;19;154405;-56
2023/04/16 01:12:10;;;;;;;;;;;;;;;14.89;51.48;102325.44;7260820;19;154480;-55
2023/04/16 01:14:37;;;;;;;;;;;;;;;14.91;51.29;102320.47;7261838;19;153040;-54
2023/04/16 01:17:03;;;;;;;;;;;;;;;14.92;51.47;102330.50;7258413;19;152187;-54
2023/04/16 01:19:30;;;;;;;;;;;;;;;14.94;51.33;102317.22;7259966;19;153781;-54
2023/04/16 01:21:57;;;;;;;;;;;;;;;14.93;51.31;102321.94;7260546;19;154072;-54
2023/04/16 01:24:24;;;;;;;;;;;;;;;14.93;51.28;102319.16;7270180;19;153680;-54
2023/04/16 01:26:51;;;;;;;;;;;;;;;14.96;51.37;102320.59;7258678;19;152583;-54
2023/04/16 01:29:18;;;;;;;;;;;;;;;14.94;51.32;102326.44;7260822;19;152786;-53
2023/04/16 01:31:45;;;;;;;;;;;;;;;14.91;51.42;102329.66;7258977;19;152933;-54
2023/04/16 01:34:12;;;;;;;;;;;;;;;14.92;51.34;102323.00;7261168;19;153912;-54
2023/04/16 01:36:39;;;;;;;;;;;;;;;14.91;51.45;102317.69;7259649;19;152722;-54
2023/04/16 01:39:06;;;;;;;;;;;;;;;14.93;51.27;102323.88;7260990;19;154105;-54
2023/04/16 01:41:33;;;;;;;;;;;;;;;14.90;51.22;102314.03;7260045;19;153718;-54
2023/04/16 01:44:00;;;;;;;;;;;;;;;14.90;51.31;102318.78;7263312;19;153438;-54
2023/04/16 01:46:28;;;;;;;;;;;;;;;14.94;51.36;102320.00;7263701;19;153800;-54
2023/04/16 01:48:55;;;;;;;;;;;;;;;14.96;50.92;102324.25;7256734;19;153520;-54
2023/04/16 01:51:22;;;;;;;;;;;;;;;14.96;51.03;102321.44;7257623;19;154126;-54
2023/04/16 01:53:49;;;;;;;;;;;;;;;14.94;51.36;102320.00;7259754;19;153877;-54
2023/04/16 01:56:16;;;;;;;;;;;;;;;14.94;51.19;102323.66;7257237;19;153550;-54
2023/04/16 01:58:44;;;;;;;;;;;;;;;14.94;51.04;102320.00;7260442;19;153852;-54
2023/04/16 02:01:12;;;;;;;;;;;;;;;14.90;51.18;102319.59;7256565;19;152402;-54
2023/04/16 02:03:39;;;;;;;;;;;;;;;14.89;51.28;102317.09;7261519;19;153898;-62
2023/04/16 02:06:06;;;;;;;;;;;;;;;14.92;51.17;102319.38;7254029;19;153918;-54
2023/04/16 02:08:33;;;;;;;;;;;;;;;14.91;51.53;102314.91;7266744;19;154348;-54
2023/04/16 02:11:00;;;;;;;;;;;;;;;14.93;51.07;102318.31;7259129;19;153980;-54
2023/04/16 02:13:27;;;;;;;;;;;;;;;14.95;51.18;102313.34;7260113;19;153313;-55
2023/04/16 02:15:54;;;;;;;;;;;;;;;14.92;51.01;102314.66;7260174;19;153028;-54
2023/04/16 02:18:20;;;;;;;;;;;;;;;14.93;51.10;102307.16;7258786;19;155807;-54
2023/04/16 02:20:48;;;;;;;;;;;;;;;14.94;51.28;102311.66;7252622;19;152557;-54
2023/04/16 02:23:15;;;;;;;;;;;;;;;14.93;51.03;102312.75;7256317;19;152519;-54
2023/04/16 02:25:44;;;;;;;;;;;;;;;14.95;50.86;102313.34;7256213;19;154524;-54
2023/04/16 02:28:12;;;;;;;;;;;;;;;14.96;51.01;102312.25;7258946;19;152311;-54
2023/04/16 02:30:39;;;;;;;;;;;;;;;14.97;50.92;102313.97;7264746;19;154235;-54
2023/04/16 02:33:07;;;;;;;;;;;;;;;14.96;50.97;102317.81;7258274;19;152486;-54
2023/04/16 02:35:34;;;;;;;;;;;;;;;14.94;51.14;102320.00;7255136;19;152553;-54
2023/04/16 02:38:01;;;;;;;;;;;;;;;14.94;51.06;102314.44;7255192;19;153644;-54
2023/04/16 02:40:28;;;;;;;;;;;;;;;14.95;51.11;102316.13;7256611;19;153494;-54
2023/04/16 02:42:56;;;;;;;;;;;;;;;14.93;50.86;102305.25;7255481;19;152842;-54
2023/04/16 02:45:23;;;;;;;;;;;;;;;14.95;51.02;102302.19;7257366;19;153402;-54
2023/04/16 02:47:50;;;;;;;;;;;;;;;14.94;51.08;102297.75;7254899;19;154030;-54
2023/04/16 02:50:17;;;;;;;;;;;;;;;14.95;51.15;102297.50;7257617;19;152774;-54
2023/04/16 02:52:44;;;;;;;;;;;;;;;14.94;50.85;102297.75;7256953;19;153750;-54
2023/04/16 02:55:11;;;;;;;;;;;;;;;14.94;51.14;102297.75;7257691;19;153815;-54
2023/04/16 02:57:37;;;;;;;;;;;;;;;14.95;51.14;102297.50;7255952;19;154164;-54
2023/04/16 03:00:04;;;;;;;;;;;;;;;14.96;50.71;102298.34;7255807;19;153902;-54
2023/04/16 03:02:31;;;;;;;;;;;;;;;14.94;50.92;102298.59;7252851;19;152957;-54
2023/04/16 03:04:58;;;;;;;;;;;;;;;14.95;51.02;102297.50;7255831;19;154202;-54
2023/04/16 03:07:28;;;;;;;;;;;;;;;14.91;51.28;102299.06;7255774;19;153119;-54
2023/04/16 03:09:54;;;;;;;;;;;;;;;14.91;50.99;102301.84;7257460;19;153728;-54
2023/04/16 03:12:21;;;;;;;;;;;;;;;14.91;51.15;102300.97;7264858;19;154174;-54
2023/04/16 03:14:49;;;;;;;;;;;;;;;14.90;51.12;102300.13;7257708;19;153506;-54
2023/04/16 03:17:16;;;;;;;;;;;;;;;14.89;51.14;102301.25;7254764;19;153622;-54
2023/04/16 03:19:43;;;;;;;;;;;;;;;14.93;50.88;102301.59;7257721;19;152817;-54
2023/04/16 03:22:12;;;;;;;;;;;;;;;14.94;50.93;102300.53;7257448;19;152790;-54
2023/04/16 03:24:38;;;;;;;;;;;;;;;14.90;51.01;102302.09;7254958;19;156514;-54
2023/04/16 03:27:05;;;;;;;;;;;;;;;14.91;50.85;102307.41;7253251;19;152276;-54
2023/04/16 03:29:32;;;;;;;;;;;;;;;14.94;50.85;102308.88;7257438;19;153118;-54
2023/04/16 03:31:59;;;;;;;;;;;;;;;14.93;50.97;102309.97;7255085;19;154429;-54
2023/04/16 03:34:26;;;;;;;;;;;;;;;14.92;50.87;102308.25;7263681;19;152253;-54
2023/04/16 03:36:53;;;;;;;;;;;;;;;14.92;50.83;102306.31;7252824;19;152638;-54
2023/04/16 03:39:19;;;;;;;;;;;;;;;14.91;50.85;102304.63;7255244;19;152487;-54
2023/04/16 03:41:46;;;;;;;;;;;;;;;14.94;50.87;102308.88;7252574;19;153996;-54
2023/04/16 03:44:13;;;;;;;;;;;;;;;14.91;50.82;102312.13;7255612;19;154168;-54
2023/04/16 03:46:40;;;;;;;;;;;;;;;14.92;50.92;102308.25;7255875;19;152981;-54
2023/04/16 03:49:07;;;;;;;;;;;;;;;14.92;51.24;102300.75;7256268;19;153563;-54
2023/04/16 03:51:34;;;;;;;;;;;;;;;14.91;51.06;102296.28;7254073;19;152270;-55
2023/04/16 03:54:01;;;;;;;;;;;;;;;14.94;50.89;102312.50;7257397;19;152027;-55
2023/04/16 03:56:27;;;;;;;;;;;;;;;14.93;51.10;102310.81;7260505;19;153827;-55
2023/04/16 03:58:54;;;;;;;;;;;;;;;14.93;50.98;102310.81;7257336;19;152364;-55
2023/04/16 04:01:21;;;;;;;;;;;;;;;14.92;50.90;102305.47;7255019;19;154006;-55
2023/04/16 04:03:48;;;;;;;;;;;;;;;14.94;51.06;102311.66;7255056;19;152178;-54
2023/04/16 04:06:15;;;;;;;;;;;;;;;14.94;50.82;102304.16;7252178;19;152503;-55
2023/04/16 04:08:42;;;;;;;;;;;;;;;14.93;50.80;102301.59;7254598;19;152278;-55
2023/04/16 04:11:09;;;;;;;;;;;;;;;14.95;51.02;102310.56;7253237;19;154710;-55
2023/04/16 04:13:35;;;;;;;;;;;;;;;14.94;50.88;102309.72;7253779;19;152272;-55
2023/04/16 04:16:03;;;;;;;;;;;;;;;14.95;51.08;102304.97;7251563;19;152308;-55
2023/04/16 04:18:29;;;;;;;;;;;;;;;14.95;50.98;102302.19;7259716;19;153850;-55
2023/04/16 04:20:56;;;;;;;;;;;;;;;14.95;50.92;102305.84;7252794;19;153264;-55
2023/04/16 04:23:23;;;;;;;;;;;;;;;14.93;51.03;102304.38;7257560;19;153722;-55
2023/04/16 04:25:50;;;;;;;;;;;;;;;14.95;50.81;102307.75;7254365;19;151833;-55
2023/04/16 04:28:17;;;;;;;;;;;;;;;14.93;51.06;102308.03;7253736;19;153166;-54
2023/04/16 04:30:44;;;;;;;;;;;;;;;14.93;51.16;102301.59;7255505;19;154263;-55
2023/04/16 04:33:10;;;;;;;;;;;;;;;14.96;50.92;102303.91;7253443;19;153008;-55
2023/04/16 04:35:37;;;;;;;;;;;;;;;14.93;51.10;102304.38;7255298;19;152688;-55
2023/04/16 04:38:04;;;;;;;;;;;;;;;14.94;50.98;102306.09;7252798;19;152755;-55
2023/04/16 04:40:33;;;;;;;;;;;;;;;14.96;51.26;102306.69;7257763;19;155175;-54
2023/04/16 04:43:00;;;;;;;;;;;;;;;14.96;51.25;102304.75;7254987;19;153393;-54
2023/04/16 04:45:27;;;;;;;;;;;;;;;14.93;51.22;102305.25;7256542;19;152650;-54
2023/04/16 04:47:57;;;;;;;;;;;;;;;14.94;51.02;102315.28;7252246;19;153123;-54
2023/04/16 04:50:24;;;;;;;;;;;;;;;14.93;51.10;102309.97;7251734;19;153475;-54
2023/04/16 04:52:50;;;;;;;;;;;;;;;14.93;51.14;102312.75;7252668;19;152780;-55
2023/04/16 04:55:17;;;;;;;;;;;;;;;14.93;51.31;102307.16;7251874;19;152885;-54
2023/04/16 04:57:44;;;;;;;;;;;;;;;14.92;51.07;102309.09;7249805;19;154178;-55
2023/04/16 05:00:11;;;;;;;;;;;;;;;14.95;51.04;102310.56;7260453;19;152828;-54
2023/04/16 05:02:38;;;;;;;;;;;;;;;14.95;50.89;102304.97;7249663;19;154014;-54
2023/04/16 05:05:05;;;;;;;;;;;;;;;14.94;51.08;102306.09;7252954;19;151908;-54
2023/04/16 05:07:33;;;;;;;;;;;;;;;14.95;51.23;102304.97;7253521;19;153212;-54
2023/04/16 05:09:59;;;;;;;;;;;;;;;14.93;51.13;102298.81;7253264;19;153485;-54
2023/04/16 05:12:26;;;;;;;;;;;;;;;14.94;51.05;102304.16;7256747;19;152245;-54
2023/04/16 05:14:53;;;;;;;;;;;;;;;14.94;51.29;102306.09;7256039;19;152905;-54
2023/04/16 05:17:20;;;;;;;;;;;;;;;14.95;50.92;102308.63;7252706;19;152701;-54
2023/04/16 05:19:47;;;;;;;;;;;;;;;14.93;51.41;102309.97;7252342;19;152842;-54
2023/04/16 05:22:17;;;;;;;;;;;;;;;14.94;51.12;102312.50;7261328;19;152864;-54
2023/04/16 05:24:44;;;;;;;;;;;;;;;14.96;51.28;102310.31;7262198;19;153550;-55
2023/04/16 05:27:11;;;;;;;;;;;;;;;14.93;51.33;102305.25;7254943;19;153244;-55
2023/04/16 05:29:38;;;;;;;;;;;;;;;14.95;51.12;102311.41;7258595;19;154867;-54
2023/04/16 05:32:05;;;;;;;;;;;;;;;14.95;51.20;102314.19;7257237;19;154408;-55
2023/04/16 05:34:31;;;;;;;;;;;;;;;14.96;51.26;102315.03;7260981;19;152788;-55
2023/04/16 05:36:58;;;;;;;;;;;;;;;14.95;51.31;102308.63;7260755;19;154255;-54
2023/04/16 05:39:25;;;;;;;;;;;;;;;14.96;51.08;102315.88;7261642;19;152087;-54
2023/04/16 05:41:52;;;;;;;;;;;;;;;14.96;51.43;102315.88;7258901;19;155017;-54
2023/04/16 05:44:19;;;;;;;;;;;;;;;14.96;51.10;102313.09;7267823;19;153926;-54
2023/04/16 05:46:48;;;;;;;;;;;;;;;14.96;51.35;102317.81;7259111;19;153533;-54
2023/04/16 05:49:17;;;;;;;;;;;;;;;14.97;51.03;102320.38;7257939;19;153357;-54
2023/04/16 05:51:44;;;;;;;;;;;;;;;14.96;51.31;102317.81;7257068;19;152132;-54
2023/04/16 05:54:11;;;;;;;;;;;;;;;14.95;51.29;102324.47;7263138;19;155417;-54
2023/04/16 05:56:38;;;;;;;;;;;;;;;14.94;51.11;102326.44;7256285;19;154211;-54
2023/04/16 05:59:04;;;;;;;;;;;;;;;14.95;51.20;102319.75;7259348;19;153293;-54
2023/04/16 06:01:31;;;;;;;;;;;;;;;14.96;51.45;102317.81;7256138;19;152940;-54
2023/04/16 06:04:00;;;;;;;;;;;;;;;14.95;51.28;102328.09;7258250;19;153475;-54
2023/04/16 06:06:27;;;;;;;;;;;;;;;14.94;51.53;102326.44;7264829;19;152590;-54
2023/04/16 06:08:56;;;;;;;;;;;;;;;14.95;51.50;102328.09;7260899;19;154110;-54
2023/04/16 06:11:23;;;;;;;;;;;;;;;14.97;51.28;102333.44;7256489;19;152494;-54
2023/04/16 06:13:50;;;;;;;;;;;;;;;14.97;51.30;102325.94;7262523;19;153594;-54
2023/04/16 06:16:17;;;;;;;;;;;;;;;14.95;51.35;102330.03;7255198;19;153284;-54
2023/04/16 06:18:44;;;;;;;;;;;;;;;14.96;51.21;102329.81;7260522;19;153094;-54
2023/04/16 06:21:10;;;;;;;;;;;;;;;14.93;51.32;102338.63;7254334;19;153429;-54
2023/04/16 06:23:37;;;;;;;;;;;;;;;14.95;51.52;102341.16;7257780;19;154456;-54
2023/04/16 06:26:04;;;;;;;;;;;;;;;14.98;51.41;102335.13;7257335;19;153881;-54
2023/04/16 06:28:31;;;;;;;;;;;;;;;14.95;51.11;102335.59;7265665;19;152991;-54
2023/04/16 06:30:58;;;;;;;;;;;;;;;14.95;51.39;102336.44;7256434;19;154010;-54
2023/04/16 06:33:25;;;;;;;;;;;;;;;14.94;51.52;102345.06;7258948;19;153038;-54
2023/04/16 06:35:52;;;;;;;;;;;;;;;14.95;51.13;102338.38;7253056;19;153776;-54
2023/04/16 06:38:19;;;;;;;;;;;;;;;14.97;51.36;102342.63;7258343;19;154012;-54
2023/04/16 06:40:47;;;;;;;;;;;;;;;14.96;51.35;102346.50;7256470;19;153483;-53
2023/04/16 06:43:14;;;;;;;;;;;;;;;14.96;51.37;102346.50;7255977;19;154972;-54
2023/04/16 06:45:41;;;;;;;;;;;;;;;14.97;51.25;102352.91;7257581;19;152906;-54
2023/04/16 06:48:08;;;;;;;;;;;;;;;14.98;51.21;102354.63;7256842;19;153258;-54
2023/04/16 06:50:35;;;;;;;;;;;;;;;14.96;51.33;102349.28;7266293;19;153990;-54
2023/04/16 06:53:02;;;;;;;;;;;;;;;14.95;51.37;102344.78;7259256;19;152481;-54
2023/04/16 06:55:29;;;;;;;;;;;;;;;14.96;51.12;102349.28;7259375;19;153687;-54
2023/04/16 06:57:55;;;;;;;;;;;;;;;14.97;51.36;102345.41;7257174;19;152711;-54
2023/04/16 07:00:22;;;;;;;;;;;;;;;14.95;51.38;102350.34;7256447;19;152678;-54
2023/04/16 07:02:49;;;;;;;;;;;;;;;14.97;51.47;102350.13;7252669;19;153613;-54
2023/04/16 07:05:16;;;;;;;;;;;;;;;14.96;51.19;102352.06;7258752;19;152493;-54
2023/04/16 07:07:43;;;;;;;;;;;;;;;14.98;51.28;102358.25;7258547;19;152804;-54
2023/04/16 07:10:10;;;;;;;;;;;;;;;14.99;51.52;102351.56;7263235;19;154250;-54
2023/04/16 07:12:39;;;;;;;;;;;;;;;14.97;51.36;102352.91;7258667;19;152817;-54
2023/04/16 07:15:07;;;;;;;;;;;;;;;14.99;51.31;102361.88;7255533;19;154386;-54
2023/04/16 07:17:33;;;;;;;;;;;;;;;14.96;51.32;102357.63;7256297;19;151978;-54
2023/04/16 07:20:01;;;;;;;;;;;;;;;14.97;51.32;102362.13;7257368;19;153402;-54
2023/04/16 07:22:27;;;;;;;;;;;;;;;14.99;51.26;102371.06;7254972;19;153395;-54
2023/04/16 07:24:55;;;;;;;;;;;;;;;14.98;51.14;102366.59;7259704;19;153851;-54
2023/04/16 07:27:22;;;;;;;;;;;;;;;14.98;51.24;102365.75;7257390;19;153465;-54
2023/04/16 07:29:49;;;;;;;;;;;;;;;14.97;51.45;102366.81;7256406;19;155360;-53
2023/04/16 07:32:16;;;;;;;;;;;;;;;14.96;51.33;102367.91;7263275;19;152203;-54
2023/04/16 07:34:43;;;;;;;;;;;;;;;14.98;51.49;102366.59;7255443;19;153307;-54
2023/04/16 07:37:10;;;;;;;;;;;;;;;14.98;51.56;102371.31;7257980;19;153080;-54
2023/04/16 07:39:37;;;;;;;;;;;;;;;14.98;51.50;102366.59;7258865;19;153477;-54
2023/04/16 07:42:04;;;;;;;;;;;;;;;15.00;51.27;102369.97;7253717;19;155150;-54
2023/04/16 07:44:31;;;;;;;;;;;;;;;14.99;51.69;102373.03;7256286;19;152668;-54
2023/04/16 07:46:58;;;;;;;;;;;;;;;14.97;51.60;102370.47;7253736;19;153883;-54
2023/04/16 07:49:25;;;;;;;;;;;;;;;15.00;51.57;102372.75;7253102;19;153838;-54
2023/04/16 07:51:52;;;;;;;;;;;;;;;15.02;51.41;102380.88;7255892;19;153068;-54
2023/04/16 07:54:21;;;;;;;;;;;;;;;15.02;51.25;102380.88;7260029;19;152038;-54
2023/04/16 07:56:48;;;;;;;;;;;;;;;15.03;51.23;102382.59;7255109;19;151909;-54
2023/04/16 07:59:14;;;;;;;;;;;;;;;15.01;51.23;102379.19;7256491;19;153090;-54
2023/04/16 08:01:52;;;;;;;;;;;;;;;15.03;51.38;102375.09;7254082;19;154234;-54
2023/04/16 08:04:23;;;;;;;;;;;;;;;15.02;51.54;102383.66;7254495;19;152037;-54
2023/04/16 08:06:51;;;;;;;;;;;;;;;15.03;51.50;102385.38;7254474;19;153548;-54
2023/04/16 08:09:20;;;;;;;;;;;;;;;15.03;51.51;102386.22;7254985;19;156338;-54
2023/04/16 08:11:48;;;;;;;;;;;;;;;15.02;51.40;102384.53;7252440;19;153085;-54
2023/04/16 08:14:15;;;;;;;;;;;;;;;15.03;51.22;102390.94;7255259;19;152728;-54
2023/04/16 08:16:43;;;;;;;;;;;;;;;15.02;51.36;102390.09;7260162;19;153856;-54
2023/04/16 08:19:10;;;;;;;;;;;;;;;15.04;51.23;102393.47;7254701;19;153661;-54
2023/04/16 08:21:39;;;;;;;;;;;;;;;15.04;51.35;102389.84;7253874;19;153139;-54
2023/04/16 08:24:06;;;;;;;;;;;;;;;15.05;51.19;102394.31;7252707;19;151917;-54
2023/04/16 08:26:36;;;;;;;;;;;;;;;15.05;51.19;102391.53;7254839;19;154960;-54
2023/04/16 08:29:02;;;;;;;;;;;;;;;15.06;51.20;102396.88;7255167;19;153719;-54
2023/04/16 08:31:29;;;;;;;;;;;;;;;15.07;51.05;102397.72;7252573;19;153400;-54
2023/04/16 08:33:56;;;;;;;;;;;;;;;15.07;51.03;102393.03;7251341;19;152544;-53
2023/04/16 08:36:23;;;;;;;;;;;;;;;15.07;51.24;102393.03;7255155;19;153854;-53
2023/04/16 08:38:51;;;;;;;;;;;;;;;15.06;51.33;102390.47;7260599;19;153082;-54
2023/04/16 08:41:20;;;;;;;;;;;;;;;15.08;51.41;102391.09;7251762;19;153227;-54
2023/04/16 08:43:49;;;;;;;;;;;;;;;15.07;51.27;102393.03;7257735;19;153511;-54
2023/04/16 08:46:16;;;;;;;;;;;;;;;15.07;51.44;102387.44;7255225;19;153017;-55
2023/04/16 08:48:47;;;;;;;;;;;;;;;15.08;51.20;102394.69;7251844;19;153364;-55
2023/04/16 08:51:16;;;;;;;;;;;;;;;15.07;51.16;102395.81;7251124;19;152563;-54
2023/04/16 08:53:52;;;;;;;;;;;;;;;15.07;51.18;102392.16;7254550;19;153499;-54
2023/04/16 08:56:20;;;;;;;;;;;;;;;15.07;51.46;102398.59;7253936;19;153257;-55
2023/04/16 08:58:47;;;;;;;;;;;;;;;15.10;51.31;102402.81;7260221;19;152634;-55
2023/04/16 09:01:16;;;;;;;;;;;;;;;15.10;51.46;102395.31;7264881;19;155016;-54
2023/04/16 09:03:47;;;;;;;;;;;;;;;15.09;51.36;102407.53;7260628;19;153647;-55
2023/04/16 09:06:16;;;;;;;;;;;;;;;15.11;51.29;102415.66;7263678;19;153984;-54
2023/04/16 09:08:43;;;;;;;;;;;;;;;15.12;51.44;102411.78;7263910;19;153461;-54
2023/04/16 09:11:12;;;;;;;;;;;;;;;15.13;51.03;102410.69;7259288;19;153147;-54
2023/04/16 09:13:39;;;;;;;;;;;;;;;15.13;51.36;102408.75;7259347;19;152687;-55
2023/04/16 09:16:06;;;;;;;;;;;;;;;15.16;51.05;102415.78;7257309;19;153237;-54
2023/04/16 09:18:33;;;;;;;;;;;;;;;15.17;51.19;102420.28;7260305;19;153806;-55
2023/04/16 09:21:00;;;;;;;;;;;;;;;15.18;51.14;102413.59;7269236;19;153400;-54
2023/04/16 09:23:28;;;;;;;;;;;;;;;15.20;51.13;102411.44;7262244;19;153321;-54
2023/04/16 09:25:56;;;;;;;;;;;;;;;15.21;50.96;102417.88;7259479;19;153017;-54
2023/04/16 09:28:41;;;;;;;;;;;;;;;15.23;50.90;102412.91;7260099;19;153049;-54
2023/04/16 09:31:10;;;;;;;;;;;;;;;15.24;51.17;102418.25;7258578;19;153917;-55
2023/04/16 09:33:37;;;;;;;;;;;;;;;15.26;50.77;102416.09;7260169;19;153960;-54
2023/04/16 09:36:04;;;;;;;;;;;;;;;15.28;50.90;102415.81;7261878;19;154283;-55
2023/04/16 09:38:41;;;;;;;;;;;;;;;15.28;50.85;102415.81;7257910;19;152903;-55
2023/04/16 09:41:08;;;;;;;;;;;;;;;15.28;50.79;102421.38;7260353;19;153391;-55
2023/04/16 09:43:35;;;;;;;;;;;;;;;15.27;50.71;102416.91;7266579;19;154083;-54
2023/04/16 09:46:03;;;;;;;;;;;;;;;15.30;50.63;102425.66;7258968;19;153580;-55
2023/04/16 09:48:33;;;;;;;;;;;;;;;15.32;50.70;102429.03;7258224;19;154348;-55
2023/04/16 09:51:00;;;;;;;;;;;;;;;15.30;50.80;102417.31;7258696;19;151871;-54
2023/04/16 09:53:28;;;;;;;;;;;;;;;15.34;50.74;102417.66;7258204;19;153122;-54
2023/04/16 09:55:56;;;;;;;;;;;;;;;15.33;50.65;102413.19;7259152;19;153855;-54
2023/04/16 09:58:23;;;;;;;;;;;;;;;15.33;50.80;102419.59;7256491;19;152314;-55
2023/04/16 10:01:10;;;;;;;;;;;;;;;15.36;50.79;102418.25;7259549;19;153462;-54
2023/04/16 10:03:38;;;;;;;;;;;;;;;15.39;50.72;102426.16;7257563;19;154453;-55
2023/04/16 10:06:06;;;;;;;;;;;;;;;15.36;50.58;102424.69;7265878;19;151996;-54
2023/04/16 10:08:32;;;;;;;;;;;;;;;15.37;50.63;102415.25;7261958;19;153011;-54
2023/04/16 10:11:00;;;;;;;;;;;;;;;15.35;50.35;102422.16;7257098;19;153352;-54
2023/04/16 10:13:27;;;;;;;;;;;;;;;15.39;50.56;102423.38;7260581;19;152629;-54
2023/04/16 10:15:56;;;;;;;;;;;;;;;15.37;50.52;102426.38;7256267;19;154076;-55
2023/04/16 10:18:23;;;;;;;;;;;;;;;15.37;50.42;102423.59;7257721;19;153577;-55
2023/04/16 10:20:50;;;;;;;;;;;;;;;15.39;50.42;102418.66;7260045;19;152564;-54
2023/04/16 10:23:21;;;;;;;;;;;;;;;15.41;50.42;102418.41;7257241;19;154042;-55
2023/04/16 10:25:49;;;;;;;;;;;;;;;15.40;50.62;102416.72;7259874;19;152819;-55
2023/04/16 10:28:16;;;;;;;;;;;;;;;15.39;50.54;102424.22;7263953;19;153949;-54
2023/04/16 10:30:51;;;;;;;;;;;;;;;15.39;50.36;102421.44;7260329;19;152318;-55
2023/04/16 10:33:19;;;;;;;;;;;;;;;15.45;50.00;102416.84;7259425;19;153976;-55
2023/04/16 10:35:46;;;;;;;;;;;;;;;15.43;50.20;102419.88;7255353;19;154248;-55
2023/04/16 10:38:31;;;;;;;;;;;;;;;15.47;50.10;102417.47;7258598;19;152842;-55
2023/04/16 10:40:59;;;;;;;;;;;;;;;15.48;50.24;102419.16;7259962;19;153644;-54
2023/04/16 10:43:27;;;;;;;;;;;;;;;15.47;50.27;102407.16;7259010;19;153994;-55
2023/04/16 10:45:54;;;;;;;;;;;;;;;15.43;50.45;102411.53;7259281;19;152484;-54
2023/04/16 10:48:23;;;;;;;;;;;;;;;15.46;50.18;102411.03;7257770;19;152978;-54
2023/04/16 10:50:54;;;;;;;;;;;;;;;15.45;50.36;102414.91;7266524;19;152591;-55
2023/04/16 10:53:24;;;;;;;;;;;;;;;15.45;50.12;102412.13;7258813;19;152784;-54
2023/04/16 10:56:00;;;;;;;;;;;;;;;15.49;50.19;102418.09;7261658;19;154220;-55
2023/04/16 10:58:29;;;;;;;;;;;;;;;15.45;50.29;102417.69;7259920;19;152674;-55
2023/04/16 11:01:00;;;;;;;;;;;;;;;15.44;50.04;102415.16;7258282;19;153943;-55
2023/04/16 11:03:30;;;;;;;;;;;;;;;15.48;49.91;102413.59;7259954;19;154637;-55
2023/04/16 11:06:07;;;;;;;;;;;;;;;15.51;49.82;102419.56;7258308;19;152456;-55
2023/04/16 11:08:34;;;;;;;;;;;;;;;15.50;49.83;102414.19;7258897;19;152082;-55
2023/04/16 11:11:20;;;;;;;;;;;;;;;15.50;49.88;102415.06;7261774;19;154164;-54
2023/04/16 11:13:50;;;;;;;;;;;;;;;15.51;50.16;102415.94;7271321;19;152217;-55
2023/04/16 11:16:17;;;;;;;;;;;;;;;15.50;49.96;102405.81;7261794;19;153534;-55
2023/04/16 11:18:44;;;;;;;;;;;;;;;15.50;50.18;102409.50;7261749;19;153168;-55
2023/04/16 11:21:17;;;;;;;;;;;;;;;15.52;49.96;102406.50;7260919;19;153726;-55
2023/04/16 11:23:45;;;;;;;;;;;;;;;15.52;50.06;102409.28;7261813;19;153509;-55
2023/04/16 11:26:21;;;;;;;;;;;;;;;15.51;49.93;102411.19;7258602;19;152405;-55
2023/04/16 11:28:48;;;;;;;;;;;;;;;15.51;50.12;102402.00;7257329;19;153405;-53
2023/04/16 11:31:15;;;;;;;;;;;;;;;15.54;49.61;102405.16;7255595;19;154201;-54
2023/04/16 11:33:42;;;;;;;;;;;;;;;15.51;50.06;102404.78;7266900;19;153144;-54
2023/04/16 11:36:09;;;;;;;;;;;;;;;15.51;49.79;102411.19;7255398;19;155328;-53
2023/04/16 11:38:37;;;;;;;;;;;;;;;15.50;49.85;102409.50;7258273;19;153781;-54
2023/04/16 11:41:03;;;;;;;;;;;;;;;15.49;49.71;102404.97;7259212;19;152749;-54
2023/04/16 11:43:30;;;;;;;;;;;;;;;15.51;49.80;102404.78;7253773;19;154567;-54
2023/04/16 11:45:59;;;;;;;;;;;;;;;15.51;49.92;102405.63;7255466;19;152848;-54
2023/04/16 11:48:37;;;;;;;;;;;;;;;15.54;49.56;102409.88;7256439;19;153037;-54
2023/04/16 11:51:04;;;;;;;;;;;;;;;15.54;49.52;102407.94;7254628;19;154016;-54
2023/04/16 11:53:31;;;;;;;;;;;;;;;15.55;49.97;102406.84;7253929;19;153086;-54
2023/04/16 11:55:58;;;;;;;;;;;;;;;15.55;49.67;102392.91;7264582;19;154015;-54
2023/04/16 11:58:25;;;;;;;;;;;;;;;15.55;49.53;102401.28;7255838;19;153904;-54
2023/04/16 12:00:55;;;;;;;;;;;;;;;15.56;49.47;102396.56;7258185;19;153277;-54
2023/04/16 12:03:44;;;;;;;;;;;;;;;15.56;49.94;102396.56;7256820;19;153621;-54
2023/04/16 12:06:12;;;;;;;;;;;;;;;15.59;49.82;102404.44;7258339;19;152197;-54
2023/04/16 12:08:42;;;;;;;;;;;;;;;15.61;49.75;102401.41;7257500;19;152152;-54
2023/04/16 12:11:09;;;;;;;;;;;;;;;15.62;49.67;102398.41;7254908;19;152755;-55
2023/04/16 12:13:38;;;;;;;;;;;;;;;15.64;49.39;102399.00;7256783;19;153405;-54
2023/04/16 12:16:17;;;;;;;;;;;;;;;15.64;49.29;102393.41;7254626;19;153370;-54
2023/04/16 12:18:57;;;;;;;;;;;;;;;15.65;49.24;102400.69;7265755;19;153552;-54
2023/04/16 12:21:25;;;;;;;;;;;;;;;15.66;49.44;102399.63;7256512;19;152962;-54
2023/04/16 12:23:52;;;;;;;;;;;;;;;15.68;49.27;102393.78;7253446;19;154196;-54
2023/04/16 12:26:19;;;;;;;;;;;;;;;15.69;49.57;102398.25;7255507;19;153630;-54
2023/04/16 12:28:46;;;;;;;;;;;;;;;15.71;49.18;102384.97;7254913;19;152171;-54
2023/04/16 12:31:13;;;;;;;;;;;;;;;15.74;49.30;102385.31;7254477;19;154067;-54